Time;durP1;ratioP1;P1;durP2;ratioP2;P2;SDS_P1;SDS_P2;PMS_P1;PMS_P2;Temp;Humidity;BMP_temperature;BMP_pressure;BME280_temperature;BME280_humidity;BME280_pressure;Samples;Min_cycle;Max_cycle;Signal;HPM_P1;HPM_P2
2022/10/18 00:01:21;;;;;;;10.15;9.35;;;;;;;;;;5186545;28;20026;-64
2022/10/18 00:03:51;;;;;;;9.50;8.02;;;;;;;;;;5185960;28;20076;-63
2022/10/18 00:06:22;;;;;;;10.32;9.52;;;;;;;;;;5204252;28;20097;-63
2022/10/18 00:08:52;;;;;;;11.57;10.23;;;;;;;;;;5186287;28;20036;-64
2022/10/18 00:11:22;;;;;;;10.90;9.95;;;;;;;;;;5186234;28;20014;-63
2022/10/18 00:13:54;;;;;;;12.40;9.60;;;;;;;;;;5186136;28;20021;-63
2022/10/18 00:16:24;;;;;;;10.35;9.52;;;;;;;;;;5204149;28;20458;-63
2022/10/18 00:18:55;;;;;;;13.55;10.52;;;;;;;;;;5185778;28;20112;-63
2022/10/18 00:27:41;;;;;;;12.77;11.60;;;;;;;;;;5203949;28;20111;-63
2022/10/18 00:33:19;;;;;;;12.38;11.10;;;;;;;;;;5205084;28;20120;-62
2022/10/18 00:35:49;;;;;;;11.20;10.20;;;;;;;;;;5187090;28;20108;-62
2022/10/18 00:38:20;;;;;;;9.90;9.15;;;;;;;;;;5187241;28;20024;-63
2022/10/18 00:40:50;;;;;;;10.88;9.82;;;;;;;;;;5186943;28;20013;-63
2022/10/18 00:43:20;;;;;;;12.40;11.35;;;;;;;;;;5187206;28;20468;-62
2022/10/18 00:45:50;;;;;;;9.10;8.40;;;;;;;;;;5187319;28;20017;-64
2022/10/18 00:48:21;;;;;;;15.35;9.07;;;;;;;;;;5187771;28;20029;-61
2022/10/18 00:50:52;;;;;;;10.63;9.77;;;;;;;;;;5186965;28;20041;-61
2022/10/18 00:53:22;;;;;;;10.80;9.77;;;;;;;;;;5187933;28;20040;-62
2022/10/18 00:55:52;;;;;;;10.48;9.60;;;;;;;;;;5191263;28;20116;-62
2022/10/18 00:58:23;;;;;;;9.80;8.98;;;;;;;;;;5190491;28;20029;-63
2022/10/18 01:00:53;;;;;;;10.80;9.95;;;;;;;;;;5190467;28;20100;-62
2022/10/18 01:03:23;;;;;;;11.27;10.32;;;;;;;;;;5190125;28;20057;-63
2022/10/18 01:05:54;;;;;;;12.35;11.45;;;;;;;;;;5191596;28;20147;-64
2022/10/18 01:08:31;;;;;;;10.25;9.45;;;;;;;;;;5209086;28;20021;-62
2022/10/18 01:11:04;;;;;;;13.25;12.02;;;;;;;;;;5191017;28;20021;-64
2022/10/18 01:21:37;;;;;;;12.48;11.38;;;;;;;;;;5211657;28;20049;-79
2022/10/18 01:24:26;;;;;;;12.63;11.55;;;;;;;;;;5213035;28;20356;-80
2022/10/18 01:27:22;;;;;;;12.32;11.32;;;;;;;;;;5197347;28;20018;-79
2022/10/18 01:30:09;;;;;;;13.13;11.98;;;;;;;;;;5209601;28;20097;-80
2022/10/18 01:32:46;;;;;;;10.85;9.95;;;;;;;;;;5214610;28;20081;-80
2022/10/18 01:35:19;;;;;;;10.80;9.80;;;;;;;;;;5212988;28;20068;-80
2022/10/18 01:37:51;;;;;;;10.70;9.85;;;;;;;;;;5214804;28;20048;-80
2022/10/18 01:40:22;;;;;;;11.70;10.85;;;;;;;;;;5214194;28;20071;-79
2022/10/18 01:42:53;;;;;;;10.88;9.85;;;;;;;;;;5196107;28;20105;-80
2022/10/18 01:45:24;;;;;;;13.82;11.88;;;;;;;;;;5213212;28;20041;-79
2022/10/18 01:47:55;;;;;;;14.30;11.90;;;;;;;;;;5212761;28;20017;-80
2022/10/18 01:50:29;;;;;;;14.07;12.63;;;;;;;;;;5194781;28;20017;-80
2022/10/18 01:53:00;;;;;;;12.23;10.30;;;;;;;;;;5212310;28;20033;-80
2022/10/18 01:55:36;;;;;;;11.68;10.73;;;;;;;;;;5210943;28;20095;-79
2022/10/18 01:58:14;;;;;;;11.80;10.82;;;;;;;;;;5212812;28;20079;-80
2022/10/18 02:00:47;;;;;;;37.55;13.77;;;;;;;;;;5212957;28;20081;-79
2022/10/18 02:03:26;;;;;;;12.73;11.52;;;;;;;;;;5212561;28;20073;-80
2022/10/18 02:05:59;;;;;;;12.83;11.83;;;;;;;;;;5211798;28;20446;-80
2022/10/18 02:08:33;;;;;;;12.77;11.80;;;;;;;;;;5213342;28;20440;-81
2022/10/18 02:11:03;;;;;;;12.50;11.40;;;;;;;;;;5213897;28;20099;-82
2022/10/18 02:13:46;;;;;;;11.47;10.57;;;;;;;;;;5213361;28;20486;-81
2022/10/18 02:16:28;;;;;;;13.07;11.88;;;;;;;;;;5214164;28;20264;-81
2022/10/18 02:19:05;;;;;;;10.30;9.50;;;;;;;;;;5213378;28;20025;-81
2022/10/18 02:21:37;;;;;;;12.88;11.77;;;;;;;;;;5212921;28;20092;-81
2022/10/18 02:24:08;;;;;;;13.52;12.50;;;;;;;;;;5212104;28;20021;-81
2022/10/18 02:26:39;;;;;;;12.35;11.30;;;;;;;;;;5212340;28;20018;-80
2022/10/18 02:29:10;;;;;;;11.82;10.88;;;;;;;;;;5213025;28;20016;-81
2022/10/18 02:31:43;;;;;;;12.00;11.13;;;;;;;;;;5212405;28;20021;-81
2022/10/18 02:34:13;;;;;;;11.85;10.85;;;;;;;;;;5227558;22;20450;-82
2022/10/18 02:36:51;;;;;;;11.97;10.73;;;;;;;;;;5229461;28;20052;-82
2022/10/18 02:39:24;;;;;;;13.25;12.15;;;;;;;;;;5236091;28;20056;-82
2022/10/18 02:41:54;;;;;;;13.15;12.02;;;;;;;;;;5236379;28;20054;-82
2022/10/18 02:44:25;;;;;;;13.88;12.63;;;;;;;;;;5235189;28;20033;-81
2022/10/18 02:46:55;;;;;;;13.68;12.57;;;;;;;;;;5236213;28;20035;-82
2022/10/18 02:49:25;;;;;;;11.25;10.38;;;;;;;;;;5235524;28;20071;-81
2022/10/18 02:51:56;;;;;;;12.00;11.15;;;;;;;;;;5235797;28;20017;-83
2022/10/18 02:54:26;;;;;;;10.93;10.02;;;;;;;;;;5234295;28;20021;-81
2022/10/18 02:57:02;;;;;;;12.90;11.77;;;;;;;;;;5235446;28;20017;-81
2022/10/18 02:59:33;;;;;;;10.82;9.88;;;;;;;;;;5235387;28;20017;-81
2022/10/18 03:02:03;;;;;;;9.57;8.95;;;;;;;;;;5235840;28;20051;-80
2022/10/18 03:04:33;;;;;;;11.00;10.20;;;;;;;;;;5217157;28;20414;-81
2022/10/18 03:07:12;;;;;;;13.35;12.20;;;;;;;;;;5235321;28;20765;-81
2022/10/18 03:09:43;;;;;;;11.90;11.00;;;;;;;;;;5237290;28;20396;-81
2022/10/18 03:12:13;;;;;;;13.15;11.93;;;;;;;;;;5236505;28;20100;-81
2022/10/18 03:14:43;;;;;;;13.95;12.38;;;;;;;;;;5218486;28;20032;-82
2022/10/18 03:17:13;;;;;;;14.98;13.38;;;;;;;;;;5236330;28;20024;-81
2022/10/18 03:19:44;;;;;;;14.38;13.18;;;;;;;;;;5236505;28;20028;-81
2022/10/18 03:22:14;;;;;;;14.00;12.55;;;;;;;;;;5218627;28;20017;-81
2022/10/18 03:24:44;;;;;;;16.80;15.13;;;;;;;;;;5218009;28;20032;-82
2022/10/18 03:27:14;;;;;;;13.17;12.00;;;;;;;;;;5237284;28;20323;-79
2022/10/18 03:29:45;;;;;;;15.23;13.98;;;;;;;;;;5223210;28;20286;-79
2022/10/18 03:32:15;;;;;;;16.38;14.90;;;;;;;;;;5234888;28;20027;-80
2022/10/18 03:34:45;;;;;;;16.33;14.30;;;;;;;;;;5233937;28;20021;-80
2022/10/18 03:37:15;;;;;;;15.17;13.63;;;;;;;;;;5234555;28;20364;-80
2022/10/18 03:39:46;;;;;;;13.83;12.73;;;;;;;;;;5234379;28;20270;-80
2022/10/18 03:42:16;;;;;;;15.82;14.50;;;;;;;;;;5234194;28;20282;-79
2022/10/18 03:44:46;;;;;;;18.03;15.50;;;;;;;;;;5233456;28;20025;-80
2022/10/18 03:47:16;;;;;;;17.20;15.82;;;;;;;;;;5235497;28;20383;-81
2022/10/18 03:49:46;;;;;;;16.50;15.13;;;;;;;;;;5235623;28;20021;-81
2022/10/18 03:52:17;;;;;;;16.63;15.20;;;;;;;;;;5236488;28;20405;-81
2022/10/18 03:54:47;;;;;;;13.48;12.32;;;;;;;;;;5235150;28;20017;-82
2022/10/18 03:57:17;;;;;;;14.23;13.05;;;;;;;;;;5236099;28;20021;-80
2022/10/18 03:59:47;;;;;;;15.80;14.57;;;;;;;;;;5235641;28;20032;-81
2022/10/18 04:02:18;;;;;;;15.90;14.60;;;;;;;;;;5236390;28;20286;-81
2022/10/18 04:04:48;;;;;;;16.40;14.98;;;;;;;;;;5218160;28;20284;-81
2022/10/18 04:07:18;;;;;;;15.40;14.05;;;;;;;;;;5236534;28;20044;-81
2022/10/18 04:09:48;;;;;;;16.47;15.27;;;;;;;;;;5234630;28;20042;-81
2022/10/18 04:12:19;;;;;;;16.73;14.38;;;;;;;;;;5235052;28;20776;-81
2022/10/18 04:14:49;;;;;;;17.15;15.70;;;;;;;;;;5216083;28;20536;-80
2022/10/18 04:17:19;;;;;;;16.98;15.35;;;;;;;;;;5217435;28;20059;-81
2022/10/18 04:19:49;;;;;;;16.38;15.00;;;;;;;;;;5216026;28;20017;-80
2022/10/18 04:22:22;;;;;;;19.83;18.08;;;;;;;;;;5230701;22;20158;-67
2022/10/18 04:24:53;;;;;;;19.52;17.65;;;;;;;;;;5185645;28;20030;-67
2022/10/18 04:27:23;;;;;;;18.60;16.23;;;;;;;;;;5186229;28;20025;-65
2022/10/18 04:29:53;;;;;;;19.27;17.23;;;;;;;;;;5189643;28;20025;-65
2022/10/18 04:32:26;;;;;;;18.52;16.60;;;;;;;;;;5190332;28;20021;-65
2022/10/18 04:34:56;;;;;;;20.95;19.00;;;;;;;;;;5207671;28;20036;-66
2022/10/18 04:37:26;;;;;;;21.55;17.92;;;;;;;;;;5190707;28;20477;-66
2022/10/18 04:39:57;;;;;;;18.08;16.55;;;;;;;;;;5189776;28;20022;-66
2022/10/18 04:42:27;;;;;;;18.75;17.00;;;;;;;;;;5208377;28;20018;-66
2022/10/18 04:45:00;;;;;;;17.15;15.40;;;;;;;;;;5207230;28;20040;-66
2022/10/18 04:47:31;;;;;;;18.02;15.52;;;;;;;;;;5179397;28;20079;-66
2022/10/18 04:50:01;;;;;;;18.35;16.63;;;;;;;;;;5170094;28;20018;-66
2022/10/18 04:52:31;;;;;;;18.58;16.67;;;;;;;;;;5189448;28;20021;-66
2022/10/18 04:55:02;;;;;;;17.88;16.42;;;;;;;;;;5191528;28;20013;-66
2022/10/18 04:57:32;;;;;;;16.42;15.13;;;;;;;;;;5209657;28;20025;-66
2022/10/18 05:00:03;;;;;;;17.23;15.73;;;;;;;;;;5227580;28;20108;-67
2022/10/18 05:02:33;;;;;;;26.60;15.55;;;;;;;;;;5210472;28;20021;-65
2022/10/18 05:05:04;;;;;;;16.42;14.90;;;;;;;;;;5209978;28;20021;-65
2022/10/18 05:07:34;;;;;;;18.33;16.92;;;;;;;;;;5201873;28;20462;-65
2022/10/18 05:10:05;;;;;;;18.38;15.98;;;;;;;;;;5207619;28;20025;-65
2022/10/18 05:12:35;;;;;;;17.40;15.88;;;;;;;;;;5189690;28;20154;-65
2022/10/18 05:15:05;;;;;;;17.92;16.52;;;;;;;;;;5189854;28;20021;-68
2022/10/18 05:17:36;;;;;;;20.95;18.83;;;;;;;;;;5190071;28;20029;-66
2022/10/18 05:20:06;;;;;;;18.42;16.95;;;;;;;;;;5189701;28;20021;-65
2022/10/18 05:22:37;;;;;;;16.20;14.90;;;;;;;;;;5190040;28;20497;-65
2022/10/18 05:25:07;;;;;;;17.98;16.27;;;;;;;;;;5209662;28;20043;-67
2022/10/18 05:27:37;;;;;;;18.85;17.33;;;;;;;;;;5193714;28;20033;-65
2022/10/18 05:30:08;;;;;;;16.95;15.52;;;;;;;;;;5168830;28;20165;-66
2022/10/18 05:32:38;;;;;;;14.73;13.43;;;;;;;;;;5168643;28;20142;-66
2022/10/18 05:35:08;;;;;;;16.23;13.68;;;;;;;;;;5166610;28;20087;-66
2022/10/18 05:37:39;;;;;;;17.52;16.10;;;;;;;;;;5168424;28;20036;-66
2022/10/18 05:40:09;;;;;;;18.65;16.80;;;;;;;;;;5186501;28;20339;-65
2022/10/18 05:42:40;;;;;;;19.15;17.48;;;;;;;;;;5184345;28;20343;-65
2022/10/18 05:45:10;;;;;;;16.33;14.85;;;;;;;;;;5188863;28;20057;-66
2022/10/18 05:47:40;;;;;;;17.27;15.90;;;;;;;;;;5189009;28;20052;-66
2022/10/18 05:50:10;;;;;;;17.95;16.55;;;;;;;;;;5188022;28;20049;-66
2022/10/18 05:52:41;;;;;;;17.10;15.80;;;;;;;;;;5189309;28;20014;-66
2022/10/18 05:55:11;;;;;;;29.05;18.38;;;;;;;;;;5188849;28;20021;-66
2022/10/18 05:57:41;;;;;;;18.00;16.70;;;;;;;;;;5205351;28;20439;-66
2022/10/18 06:00:12;;;;;;;17.48;16.17;;;;;;;;;;5206431;28;20502;-66
2022/10/18 06:02:42;;;;;;;21.35;19.55;;;;;;;;;;5189451;28;20155;-65
2022/10/18 06:05:13;;;;;;;22.55;20.48;;;;;;;;;;5188315;28;20022;-66
2022/10/18 06:07:43;;;;;;;20.13;18.38;;;;;;;;;;5189128;28;20017;-65
2022/10/18 06:10:13;;;;;;;20.55;18.42;;;;;;;;;;5191512;28;20022;-65
2022/10/18 06:12:44;;;;;;;19.25;16.63;;;;;;;;;;5190809;28;20449;-65
2022/10/18 06:15:14;;;;;;;17.73;16.08;;;;;;;;;;5190965;28;20017;-66
2022/10/18 06:17:44;;;;;;;20.73;19.02;;;;;;;;;;5191240;28;20425;-66
2022/10/18 06:20:14;;;;;;;19.88;18.17;;;;;;;;;;5190953;28;20032;-66
2022/10/18 06:22:45;;;;;;;20.33;18.58;;;;;;;;;;5191729;28;20159;-66
2022/10/18 06:25:15;;;;;;;19.13;17.27;;;;;;;;;;5190008;28;20025;-66
2022/10/18 06:27:48;;;;;;;19.25;17.35;;;;;;;;;;5188984;28;20026;-66
2022/10/18 06:30:18;;;;;;;16.75;15.57;;;;;;;;;;5188280;28;20032;-67
2022/10/18 06:32:48;;;;;;;16.25;14.88;;;;;;;;;;5187781;28;20018;-66
2022/10/18 06:35:19;;;;;;;18.90;17.17;;;;;;;;;;5188087;28;20121;-66
2022/10/18 06:37:49;;;;;;;18.52;15.70;;;;;;;;;;5187673;28;20073;-65
2022/10/18 06:40:19;;;;;;;24.63;20.85;;;;;;;;;;5206171;28;20021;-66
2022/10/18 06:42:50;;;;;;;16.35;15.05;;;;;;;;;;5187382;28;20125;-66
2022/10/18 06:45:20;;;;;;;20.55;18.83;;;;;;;;;;5189795;28;20018;-66
2022/10/18 06:47:50;;;;;;;16.35;15.07;;;;;;;;;;5190474;28;20112;-66
2022/10/18 06:50:21;;;;;;;19.35;17.85;;;;;;;;;;5174198;28;20144;-66
2022/10/18 06:52:51;;;;;;;19.13;17.50;;;;;;;;;;5191365;28;20108;-66
2022/10/18 06:55:21;;;;;;;21.92;19.80;;;;;;;;;;5190497;28;20108;-66
2022/10/18 06:57:52;;;;;;;20.48;18.85;;;;;;;;;;5191430;28;20469;-66
2022/10/18 07:00:22;;;;;;;18.63;16.85;;;;;;;;;;5208893;28;20017;-66
2022/10/18 07:02:52;;;;;;;20.55;18.75;;;;;;;;;;5189761;28;20442;-66
2022/10/18 07:05:23;;;;;;;17.63;15.25;;;;;;;;;;5207873;28;20022;-66
2022/10/18 07:07:53;;;;;;;17.70;16.00;;;;;;;;;;5190392;28;20021;-66
2022/10/18 07:10:24;;;;;;;18.85;17.20;;;;;;;;;;5207246;28;20014;-66
2022/10/18 07:12:54;;;;;;;21.30;19.42;;;;;;;;;;5207871;28;20097;-66
2022/10/18 07:15:25;;;;;;;20.50;18.75;;;;;;;;;;5188793;28;20013;-67
2022/10/18 07:17:55;;;;;;;20.60;18.75;;;;;;;;;;5187549;28;20036;-65
2022/10/18 07:20:26;;;;;;;21.10;19.40;;;;;;;;;;5191457;28;20045;-65
2022/10/18 07:22:56;;;;;;;23.75;22.00;;;;;;;;;;5191225;28;20033;-65
2022/10/18 07:25:27;;;;;;;21.67;20.08;;;;;;;;;;5186866;28;20082;-65
2022/10/18 07:27:57;;;;;;;23.52;21.08;;;;;;;;;;5187174;28;20394;-65
2022/10/18 07:30:27;;;;;;;23.35;20.95;;;;;;;;;;5195924;28;20012;-65
2022/10/18 07:32:57;;;;;;;28.08;25.08;;;;;;;;;;5207661;28;20021;-66
2022/10/18 07:35:28;;;;;;;24.70;21.83;;;;;;;;;;5207119;28;20103;-65
2022/10/18 07:37:58;;;;;;;25.73;23.33;;;;;;;;;;5207895;28;20021;-66
2022/10/18 07:40:28;;;;;;;25.42;23.33;;;;;;;;;;5207681;28;20496;-66
2022/10/18 07:42:58;;;;;;;24.90;22.80;;;;;;;;;;5207923;28;20044;-67
2022/10/18 07:45:29;;;;;;;25.50;23.48;;;;;;;;;;5207532;28;20114;-65
2022/10/18 07:47:59;;;;;;;25.17;22.98;;;;;;;;;;5207823;28;20023;-64
2022/10/18 07:50:29;;;;;;;25.13;23.05;;;;;;;;;;5207394;28;20496;-65
2022/10/18 07:53:00;;;;;;;28.10;25.23;;;;;;;;;;5207342;28;20020;-65
2022/10/18 07:55:30;;;;;;;28.13;25.65;;;;;;;;;;5207185;28;20045;-65
2022/10/18 07:58:00;;;;;;;27.90;25.50;;;;;;;;;;5207667;28;20023;-65
2022/10/18 08:00:30;;;;;;;23.55;21.95;;;;;;;;;;5225338;28;20021;-65
2022/10/18 08:03:01;;;;;;;26.50;24.08;;;;;;;;;;5210064;28;20016;-65
2022/10/18 08:05:31;;;;;;;27.30;23.77;;;;;;;;;;5211460;28;20079;-65
2022/10/18 08:08:02;;;;;;;24.90;22.55;;;;;;;;;;5211777;28;20028;-65
2022/10/18 08:10:33;;;;;;;25.42;22.88;;;;;;;;;;5229633;28;20108;-64
2022/10/18 08:13:03;;;;;;;26.52;23.85;;;;;;;;;;5211581;28;20052;-65
2022/10/18 08:15:33;;;;;;;29.45;26.33;;;;;;;;;;5211373;28;20112;-66
2022/10/18 08:18:04;;;;;;;28.38;25.58;;;;;;;;;;5210699;28;20286;-65
2022/10/18 08:20:35;;;;;;;28.63;25.85;;;;;;;;;;5228995;28;20154;-66
2022/10/18 08:23:07;;;;;;;25.40;23.20;;;;;;;;;;5211245;28;20105;-66
2022/10/18 08:25:37;;;;;;;25.98;23.92;;;;;;;;;;5211258;28;20055;-66
2022/10/18 08:28:07;;;;;;;28.48;25.05;;;;;;;;;;5211630;28;20044;-65
2022/10/18 08:30:38;;;;;;;26.58;23.83;;;;;;;;;;5211006;28;20111;-65
2022/10/18 08:33:08;;;;;;;31.67;24.00;;;;;;;;;;5210608;28;20532;-65
2022/10/18 08:35:39;;;;;;;25.05;22.83;;;;;;;;;;5210808;28;20021;-63
2022/10/18 08:38:11;;;;;;;26.15;23.50;;;;;;;;;;5211367;28;20168;-64
2022/10/18 08:40:42;;;;;;;25.02;22.77;;;;;;;;;;5211190;28;20400;-64
2022/10/18 08:43:31;;;;;;;29.23;21.33;;;;;;;;;;5211197;28;20021;-64
2022/10/18 08:46:02;;;;;;;26.73;19.80;;;;;;;;;;5211249;28;20035;-64
2022/10/18 08:48:40;;;;;;;24.83;19.15;;;;;;;;;;5210887;28;20009;-63
2022/10/18 08:51:33;;;;;;;28.40;21.10;;;;;;;;;;5210942;28;20024;-64
2022/10/18 08:54:03;;;;;;;26.25;21.23;;;;;;;;;;5211321;28;20048;-64
2022/10/18 08:56:33;;;;;;;21.85;18.83;;;;;;;;;;5211413;28;20060;-64
2022/10/18 08:59:10;;;;;;;27.75;18.80;;;;;;;;;;5211583;28;20100;-64
2022/10/18 09:01:41;;;;;;;19.90;18.13;;;;;;;;;;5212189;28;20382;-64
2022/10/18 09:04:30;;;;;;;26.42;17.73;;;;;;;;;;5212027;28;20144;-63
2022/10/18 09:07:22;;;;;;;19.00;17.45;;;;;;;;;;5212208;28;20029;-64
2022/10/18 09:10:01;;;;;;;23.63;17.95;;;;;;;;;;5212438;28;20017;-65
2022/10/18 09:12:52;;;;;;;27.00;18.80;;;;;;;;;;5214100;28;20017;-67
2022/10/18 09:15:35;;;;;;;15.52;14.00;;;;;;;;;;5212249;28;20025;-64
2022/10/18 09:18:24;;;;;;;18.48;15.10;;;;;;;;;;5213078;28;20017;-64
2022/10/18 09:20:56;;;;;;;14.75;12.07;;;;;;;;;;5211974;28;20377;-64
2022/10/18 09:23:32;;;;;;;17.98;13.90;;;;;;;;;;5211688;28;20059;-65
2022/10/18 09:26:08;;;;;;;13.65;12.25;;;;;;;;;;5211958;28;20108;-64
2022/10/18 09:28:39;;;;;;;17.17;10.88;;;;;;;;;;5212380;28;20032;-65
2022/10/18 09:31:34;;;;;;;20.35;13.52;;;;;;;;;;5230493;28;20044;-65
2022/10/18 09:34:07;;;;;;;16.20;9.05;;;;;;;;;;5212186;28;20029;-66
2022/10/18 09:36:38;;;;;;;15.55;13.65;;;;;;;;;;5212944;28;20518;-65
2022/10/18 09:39:08;;;;;;;10.95;9.93;;;;;;;;;;5228793;28;20025;-65
2022/10/18 09:41:38;;;;;;;13.20;11.02;;;;;;;;;;5210749;28;20044;-65
2022/10/18 09:44:08;;;;;;;14.80;12.25;;;;;;;;;;5228553;28;20033;-65
2022/10/18 09:46:42;;;;;;;12.15;9.10;;;;;;;;;;5210209;28;20369;-65
2022/10/18 09:49:15;;;;;;;15.32;11.68;;;;;;;;;;5212220;28;20365;-64
2022/10/18 09:51:47;;;;;;;17.58;11.07;;;;;;;;;;5204999;28;20028;-65
2022/10/18 09:54:17;;;;;;;11.18;8.85;;;;;;;;;;5230247;28;20036;-65
2022/10/18 09:56:47;;;;;;;21.00;11.13;;;;;;;;;;5229683;28;20109;-65
2022/10/18 09:59:24;;;;;;;18.95;8.70;;;;;;;;;;5209669;28;20067;-65
2022/10/18 10:01:54;;;;;;;20.63;10.30;;;;;;;;;;5208261;28;20029;-65
2022/10/18 10:04:25;;;;;;;9.07;8.38;;;;;;;;;;5208306;28;20025;-66
2022/10/18 10:06:58;;;;;;;8.30;7.57;;;;;;;;;;5208556;28;20146;-65
2022/10/18 10:09:30;;;;;;;11.40;8.07;;;;;;;;;;5208790;28;20062;-64
2022/10/18 10:12:01;;;;;;;9.85;6.00;;;;;;;;;;5209678;28;20059;-65
2022/10/18 10:14:41;;;;;;;14.77;10.38;;;;;;;;;;5209963;28;20438;-64
2022/10/18 10:17:28;;;;;;;10.45;8.05;;;;;;;;;;5210046;28;20017;-64
2022/10/18 10:20:14;;;;;;;12.55;8.65;;;;;;;;;;5209931;28;20021;-64
2022/10/18 10:22:45;;;;;;;10.93;8.68;;;;;;;;;;5204109;22;20133;-69
2022/10/18 10:25:29;;;;;;;13.52;7.03;;;;;;;;;;5188026;28;20237;-70
2022/10/18 10:28:04;;;;;;;6.68;5.65;;;;;;;;;;5188612;28;20037;-69
2022/10/18 10:30:36;;;;;;;12.30;6.75;;;;;;;;;;5183367;28;20021;-69
2022/10/18 10:33:26;;;;;;;17.73;7.90;;;;;;;;;;5186774;28;20020;-70
2022/10/18 10:36:00;;;;;;;4.22;3.83;;;;;;;;;;5186021;28;20254;-69
2022/10/18 10:38:31;;;;;;;10.13;5.05;;;;;;;;;;5205881;28;20393;-68
2022/10/18 10:41:01;;;;;;;6.00;5.40;;;;;;;;;;5188143;28;20014;-68
2022/10/18 10:43:32;;;;;;;7.43;6.63;;;;;;;;;;5202588;28;20044;-70
2022/10/18 10:46:13;;;;;;;8.82;8.10;;;;;;;;;;5188153;28;20017;-70
2022/10/18 10:48:47;;;;;;;12.98;9.23;;;;;;;;;;5205499;28;20017;-70
2022/10/18 10:51:27;;;;;;;6.57;6.07;;;;;;;;;;5188049;28;20473;-69
2022/10/18 10:54:07;;;;;;;6.43;4.68;;;;;;;;;;5187139;28;20025;-68
2022/10/18 10:56:50;;;;;;;5.53;4.65;;;;;;;;;;5187940;28;20037;-69
2022/10/18 10:59:21;;;;;;;10.45;4.93;;;;;;;;;;5187828;28;20025;-68
2022/10/18 11:02:19;;;;;;;5.13;4.38;;;;;;;;;;5187914;28;20374;-70
2022/10/18 11:04:50;;;;;;;8.45;5.60;;;;;;;;;;5187352;28;20021;-70
2022/10/18 11:07:32;;;;;;;5.80;5.30;;;;;;;;;;5205246;28;20025;-71
2022/10/18 11:10:04;;;;;;;8.05;5.13;;;;;;;;;;5187589;28;20506;-67
2022/10/18 11:12:45;;;;;;;10.73;5.35;;;;;;;;;;5187408;28;20052;-68
2022/10/18 11:15:35;;;;;;;4.38;3.97;;;;;;;;;;5187412;28;20116;-71
2022/10/18 11:18:22;;;;;;;15.77;7.40;;;;;;;;;;5187557;28;20029;-68
2022/10/18 11:21:06;;;;;;;15.48;7.20;;;;;;;;;;5186965;28;20485;-68
2022/10/18 11:23:37;;;;;;;4.20;3.80;;;;;;;;;;5186908;28;20029;-68
2022/10/18 11:26:08;;;;;;;15.63;6.40;;;;;;;;;;5187509;28;20400;-68
2022/10/18 11:29:04;;;;;;;8.73;5.35;;;;;;;;;;5205173;28;20108;-70
2022/10/18 11:31:38;;;;;;;4.75;3.83;;;;;;;;;;5183353;28;20375;-69
2022/10/18 11:34:27;;;;;;;6.60;5.47;;;;;;;;;;5186452;28;20030;-69
2022/10/18 11:37:06;;;;;;;8.25;5.05;;;;;;;;;;5187122;28;20083;-68
2022/10/18 11:39:43;;;;;;;11.45;7.55;;;;;;;;;;5187207;28;20014;-70
2022/10/18 11:42:19;;;;;;;19.40;6.40;;;;;;;;;;5186984;28;20128;-68
2022/10/18 11:44:58;;;;;;;12.80;4.18;;;;;;;;;;5186625;28;20067;-68
2022/10/18 11:47:41;;;;;;;5.45;3.60;;;;;;;;;;5204891;28;20044;-67
2022/10/18 11:50:25;;;;;;;5.85;3.63;;;;;;;;;;5186959;28;20033;-66
2022/10/18 11:53:11;;;;;;;5.15;3.75;;;;;;;;;;5187192;28;20025;-68
2022/10/18 11:55:54;;;;;;;4.97;3.90;;;;;;;;;;5186776;28;20028;-68
2022/10/18 11:58:43;;;;;;;8.07;4.07;;;;;;;;;;5187166;28;20120;-67
2022/10/18 12:01:13;;;;;;;14.80;4.18;;;;;;;;;;5204341;28;20513;-69
2022/10/18 12:03:53;;;;;;;11.10;3.70;;;;;;;;;;5186621;28;20143;-69
2022/10/18 12:06:27;;;;;;;4.22;2.63;;;;;;;;;;5187109;28;20492;-68
2022/10/18 12:09:00;;;;;;;9.80;5.38;;;;;;;;;;5187091;28;20393;-71
2022/10/18 12:11:37;;;;;;;9.23;4.00;;;;;;;;;;5187060;28;20390;-71
2022/10/18 12:14:15;;;;;;;3.83;3.53;;;;;;;;;;5184013;28;20396;-71
2022/10/18 12:16:46;;;;;;;8.55;3.60;;;;;;;;;;5203961;28;20018;-70
2022/10/18 12:19:19;;;;;;;7.50;3.47;;;;;;;;;;5186690;28;20028;-70
2022/10/18 12:21:50;;;;;;;4.90;4.13;;;;;;;;;;5186531;28;20029;-71
2022/10/18 12:24:23;;;;;;;8.48;3.05;;;;;;;;;;5186231;28;20025;-70
2022/10/18 12:26:56;;;;;;;20.85;4.63;;;;;;;;;;5186969;28;20429;-72
2022/10/18 12:29:44;;;;;;;11.18;3.90;;;;;;;;;;5186957;28;20017;-71
2022/10/18 12:32:17;;;;;;;9.82;3.47;;;;;;;;;;5186567;28;20057;-72
2022/10/18 12:34:58;;;;;;;6.75;3.42;;;;;;;;;;5186193;28;20045;-71
2022/10/18 12:37:47;;;;;;;5.32;3.60;;;;;;;;;;5186975;28;20025;-69
2022/10/18 12:40:36;;;;;;;7.97;2.72;;;;;;;;;;5186170;28;20026;-70
2022/10/18 12:43:08;;;;;;;4.50;2.95;;;;;;;;;;5186689;28;20537;-70
2022/10/18 12:45:50;;;;;;;11.80;5.40;;;;;;;;;;5185815;28;20036;-71
2022/10/18 12:48:28;;;;;;;4.18;3.42;;;;;;;;;;5204228;28;20017;-71
2022/10/18 12:50:59;;;;;;;15.00;5.10;;;;;;;;;;5189964;28;20017;-70
2022/10/18 12:53:30;;;;;;;10.57;4.57;;;;;;;;;;5189788;28;20529;-71
2022/10/18 12:56:19;;;;;;;7.18;5.03;;;;;;;;;;5190170;28;20029;-71
2022/10/18 12:58:50;;;;;;;10.95;5.82;;;;;;;;;;5207993;28;20026;-71
2022/10/18 13:01:20;;;;;;;9.23;3.50;;;;;;;;;;5190051;28;20029;-71
2022/10/18 13:03:53;;;;;;;6.97;3.67;;;;;;;;;;5189666;28;20028;-71
2022/10/18 13:06:23;;;;;;;11.38;5.05;;;;;;;;;;5189132;28;20395;-71
2022/10/18 13:09:23;;;;;;;2.88;2.63;;;;;;;;;;5189941;28;20023;-71
2022/10/18 13:12:05;;;;;;;4.20;3.70;;;;;;;;;;5120723;28;20451;-73
2022/10/18 13:14:55;;;;;;;8.90;5.15;;;;;;;;;;5189625;28;20041;-71
2022/10/18 13:17:35;;;;;;;4.93;2.60;;;;;;;;;;5189795;28;20067;-71
2022/10/18 13:20:05;;;;;;;;;;;;;;;;;;5189910;28;20036;-71
2022/10/18 13:22:41;;;;;;;8.50;4.97;;;;;;;;;;5189815;28;19917;-71
2022/10/18 13:25:24;;;;;;;15.23;4.55;;;;;;;;;;5188709;28;20163;-69
2022/10/18 13:28:00;;;;;;;5.70;4.25;;;;;;;;;;5189241;28;20412;-70
2022/10/18 13:30:31;;;;;;;2.92;2.83;;;;;;;;;;5188280;28;20374;-71
2022/10/18 13:33:05;;;;;;;5.28;3.75;;;;;;;;;;5187498;28;20025;-68
2022/10/18 13:35:54;;;;;;;8.52;4.47;;;;;;;;;;5188081;28;20425;-68
2022/10/18 13:38:43;;;;;;;2.58;2.42;;;;;;;;;;5189126;28;20056;-69
2022/10/18 13:41:15;;;;;;;10.15;4.28;;;;;;;;;;5188294;28;20025;-68
2022/10/18 13:43:52;;;;;;;9.18;2.35;;;;;;;;;;5187972;28;20104;-68
2022/10/18 13:46:22;;;;;;;6.35;3.15;;;;;;;;;;5188963;28;20140;-69
2022/10/18 13:48:57;;;;;;;6.63;2.38;;;;;;;;;;5188994;28;20112;-69
2022/10/18 13:51:31;;;;;;;9.27;3.78;;;;;;;;;;5188026;28;20362;-69
2022/10/18 13:54:14;;;;;;;7.38;4.70;;;;;;;;;;5188059;28;20033;-69
2022/10/18 13:56:44;;;;;;;7.82;4.50;;;;;;;;;;5188961;28;20025;-69
2022/10/18 13:59:33;;;;;;;5.28;3.47;;;;;;;;;;5188558;28;20362;-69
2022/10/18 14:02:22;;;;;;;7.25;4.82;;;;;;;;;;5186814;28;20017;-69
2022/10/18 14:04:58;;;;;;;11.63;4.73;;;;;;;;;;5187418;28;20018;-70
2022/10/18 14:07:29;;;;;;;3.63;3.33;;;;;;;;;;5189158;28;20489;-70
2022/10/18 14:10:01;;;;;;;7.75;3.20;;;;;;;;;;5188587;28;20017;-69
2022/10/18 14:12:39;;;;;;;7.63;3.90;;;;;;;;;;5188690;28;20017;-69
2022/10/18 14:15:16;;;;;;;7.70;5.07;;;;;;;;;;5188324;28;20053;-69
2022/10/18 14:17:49;;;;;;;8.07;3.33;;;;;;;;;;5188632;28;20485;-66
2022/10/18 14:20:26;;;;;;;5.22;3.28;;;;;;;;;;5188338;28;20393;-69
2022/10/18 14:23:16;;;;;;;7.88;3.67;;;;;;;;;;5187624;28;20026;-69
2022/10/18 14:25:47;;;;;;;5.05;3.30;;;;;;;;;;5188443;28;20093;-69
2022/10/18 14:28:18;;;;;;;6.15;3.15;;;;;;;;;;5188502;28;20108;-69
2022/10/18 14:30:56;;;;;;;7.93;3.33;;;;;;;;;;5188409;28;20477;-69
2022/10/18 14:33:44;;;;;;;5.15;3.60;;;;;;;;;;5188033;28;20486;-69
2022/10/18 14:36:23;;;;;;;9.40;4.35;;;;;;;;;;5206084;28;20021;-69
2022/10/18 14:38:55;;;;;;;8.43;3.95;;;;;;;;;;5188512;28;20461;-71
2022/10/18 14:41:29;;;;;;;7.63;3.10;;;;;;;;;;5188234;28;20083;-71
2022/10/18 14:44:15;;;;;;;8.77;4.95;;;;;;;;;;5188135;28;20240;-71
2022/10/18 14:46:49;;;;;;;3.92;2.70;;;;;;;;;;5206368;28;20393;-68
2022/10/18 14:49:20;;;;;;;5.50;3.95;;;;;;;;;;5188073;28;20013;-69
2022/10/18 14:51:51;;;;;;;5.10;3.10;;;;;;;;;;5187989;28;20115;-69
2022/10/18 14:54:32;;;;;;;6.38;5.20;;;;;;;;;;5187926;28;20477;-69
2022/10/18 14:57:03;;;;;;;4.55;2.83;;;;;;;;;;5187649;28;20025;-69
2022/10/18 14:59:56;;;;;;;8.00;2.85;;;;;;;;;;5170997;28;20481;-70
2022/10/18 15:02:32;;;;;;;3.22;3.03;;;;;;;;;;5205735;28;20029;-69
2022/10/18 15:05:07;;;;;;;4.93;3.35;;;;;;;;;;5187629;28;20027;-69
2022/10/18 15:07:38;;;;;;;7.93;4.35;;;;;;;;;;5187730;28;20056;-69
2022/10/18 15:10:16;;;;;;;6.07;3.65;;;;;;;;;;5188133;28;20069;-69
2022/10/18 15:12:46;;;;;;;6.90;3.25;;;;;;;;;;5187078;28;20056;-69
2022/10/18 15:15:19;;;;;;;4.20;3.90;;;;;;;;;;5187489;28;20442;-69
2022/10/18 15:17:50;;;;;;;5.80;2.35;;;;;;;;;;5186899;28;20030;-70
2022/10/18 15:20:41;;;;;;;3.42;2.10;;;;;;;;;;5187490;28;20095;-69
2022/10/18 15:23:22;;;;;;;4.32;3.88;;;;;;;;;;5187402;28;20036;-69